createdAt,value
2024-03-03T00:01:07.990Z,96694.75
2024-03-03T00:03:36.910Z,96698.19
2024-03-03T00:06:07.563Z,96690.56
2024-03-03T00:08:35.047Z,96695.13
2024-03-03T00:11:02.161Z,96698.78
2024-03-03T00:13:30.708Z,96702.31
2024-03-03T00:15:57.957Z,96701.50
2024-03-03T00:18:25.038Z,96705.16
2024-03-03T00:20:51.999Z,96691.75
2024-03-03T00:23:19.090Z,96693.56
2024-03-03T00:25:46.255Z,96698.78
2024-03-03T00:28:13.307Z,96699.25
2024-03-03T00:30:40.473Z,96696.63
2024-03-03T00:33:07.945Z,96689.50
2024-03-03T00:35:35.039Z,96691.09
2024-03-03T00:38:02.022Z,96695.97
2024-03-03T00:40:29.124Z,96682.13
2024-03-03T00:42:56.174Z,96681.81
2024-03-03T00:45:23.119Z,96683.63
2024-03-03T00:47:50.177Z,96676.78
2024-03-03T00:50:17.200Z,96677.03
2024-03-03T00:52:44.189Z,96678.38
2024-03-03T00:55:11.323Z,96673.06
2024-03-03T00:57:38.434Z,96664.13
2024-03-03T01:00:06.691Z,96664.19
2024-03-03T01:02:33.788Z,96664.09
2024-03-03T01:05:00.726Z,96665.78
2024-03-03T01:07:27.786Z,96657.50
2024-03-03T01:09:54.914Z,96662.97
2024-03-03T01:12:21.904Z,96657.41
2024-03-03T01:14:48.984Z,96654.47
2024-03-03T01:17:16.033Z,96658.91
2024-03-03T01:19:43.503Z,96652.53
2024-03-03T01:22:10.881Z,96646.50
2024-03-03T01:24:38.868Z,96646.50
2024-03-03T01:27:06.002Z,96638.56
2024-03-03T01:29:32.944Z,96635.41
2024-03-03T01:32:00.038Z,96632.34
2024-03-03T01:34:27.159Z,96627.56
2024-03-03T01:36:54.358Z,96625.19
2024-03-03T01:39:21.595Z,96626.56
2024-03-03T01:41:49.045Z,96619.97
2024-03-03T01:44:16.095Z,96615.66
2024-03-03T01:46:43.668Z,96616.56
2024-03-03T01:49:14.195Z,96616.47
2024-03-03T01:51:42.104Z,96610.09
2024-03-03T01:54:10.425Z,96614.41
2024-03-03T01:56:39.899Z,96614.88
2024-03-03T01:59:09.799Z,96618.84
2024-03-03T02:01:38.454Z,96611.03
2024-03-03T02:04:08.786Z,96614.56
2024-03-03T02:06:36.302Z,96613.97
2024-03-03T02:09:04.077Z,96614.75
2024-03-03T02:11:31.070Z,96611.47
2024-03-03T02:13:58.905Z,96611.03
2024-03-03T02:16:26.200Z,96616.91
2024-03-03T02:18:53.431Z,96602.84
2024-03-03T02:21:25.149Z,96599.00
2024-03-03T02:23:52.789Z,96594.69
2024-03-03T02:26:23.469Z,96602.06
2024-03-03T02:28:52.461Z,96595.72
2024-03-03T02:31:20.147Z,96604.09
2024-03-03T02:33:47.521Z,96608.66
2024-03-03T02:36:14.672Z,96614.09
2024-03-03T02:38:49.534Z,96613.06
2024-03-03T02:41:16.509Z,96613.78
2024-03-03T02:43:43.466Z,96608.19
2024-03-03T02:46:10.616Z,96608.19
2024-03-03T02:48:37.651Z,96599.81
2024-03-03T02:51:04.690Z,96602.63
2024-03-03T02:53:31.812Z,96599.47
2024-03-03T02:55:58.727Z,96590.28
2024-03-03T02:58:25.787Z,96594.13
2024-03-03T03:00:52.882Z,96591.28
2024-03-03T03:03:20.135Z,96589.16
2024-03-03T03:05:47.461Z,96585.75
2024-03-03T03:08:14.443Z,96579.97
2024-03-03T03:10:41.534Z,96587.00
2024-03-03T03:13:09.214Z,96593.88
2024-03-03T03:15:37.376Z,96593.34
2024-03-03T03:18:05.066Z,96603.78
2024-03-03T03:20:32.710Z,96597.75
2024-03-03T03:22:59.651Z,96604.22
2024-03-03T03:25:26.735Z,96602.63
2024-03-03T03:27:53.694Z,96610.09
2024-03-03T03:30:20.999Z,96606.72
2024-03-03T03:32:48.008Z,96612.38
2024-03-03T03:35:15.010Z,96615.00
2024-03-03T03:37:41.977Z,96609.97
2024-03-03T03:40:12.591Z,96618.03
2024-03-03T03:42:39.597Z,96622.69
2024-03-03T03:45:07.155Z,96617.47
2024-03-03T03:47:34.507Z,96617.13
2024-03-03T03:50:01.693Z,96615.75
2024-03-03T03:52:29.490Z,96617.34
2024-03-03T03:54:56.532Z,96617.00
2024-03-03T03:57:23.553Z,96617.81
2024-03-03T03:59:50.556Z,96621.66
2024-03-03T04:02:17.741Z,96621.25
2024-03-03T04:04:44.671Z,96619.69
2024-03-03T04:07:11.895Z,96610.28
2024-03-03T04:09:39.093Z,96609.72
2024-03-03T04:12:06.768Z,96615.13
2024-03-03T04:14:34.850Z,96609.13
2024-03-03T04:17:02.232Z,96611.41
2024-03-03T04:19:29.216Z,96609.78
2024-03-03T04:21:56.215Z,96606.06
2024-03-03T04:24:23.195Z,96604.25
2024-03-03T04:26:50.184Z,96611.28
2024-03-03T04:29:17.516Z,96616.91
2024-03-03T04:31:46.015Z,96607.88
2024-03-03T04:34:13.255Z,96605.69
2024-03-03T04:36:45.871Z,96612.72
2024-03-03T04:39:13.835Z,96606.94
2024-03-03T04:41:40.794Z,96597.19
2024-03-03T04:44:07.865Z,96604.78
2024-03-03T04:46:34.937Z,96604.44
2024-03-03T04:49:02.009Z,96600.44
2024-03-03T04:51:29.047Z,96599.66
2024-03-03T04:53:56.738Z,96601.25
2024-03-03T04:56:28.476Z,96597.63
2024-03-03T04:58:55.594Z,96598.50
2024-03-03T05:01:23.478Z,96599.53
2024-03-03T05:03:51.321Z,96594.34
2024-03-03T05:06:19.429Z,96589.13
2024-03-03T05:08:46.527Z,96584.13
2024-03-03T05:11:13.915Z,96596.00
2024-03-03T05:13:40.872Z,96594.84
2024-03-03T05:16:10.847Z,96591.59
2024-03-03T05:18:37.770Z,96593.47
2024-03-03T05:21:05.189Z,96595.88
2024-03-03T05:23:33.408Z,96594.84
2024-03-03T05:26:00.326Z,96605.94
2024-03-03T05:28:28.535Z,96604.69
2024-03-03T05:30:55.569Z,96599.38
2024-03-03T05:33:22.721Z,96601.72
2024-03-03T05:35:49.658Z,96600.16
2024-03-03T05:38:16.675Z,96594.97
2024-03-03T05:40:43.628Z,96597.00
2024-03-03T05:43:10.642Z,96597.19
2024-03-03T05:45:38.637Z,96600.25
2024-03-03T05:48:06.239Z,96604.88
2024-03-03T05:50:33.209Z,96609.28
2024-03-03T05:53:00.231Z,96605.13
2024-03-03T05:55:27.219Z,96602.72
2024-03-03T05:57:54.937Z,96612.31
2024-03-03T06:00:21.945Z,96605.53
2024-03-03T06:02:48.897Z,96610.19
2024-03-03T06:05:16.079Z,96615.59
2024-03-03T06:07:43.154Z,96621.84
2024-03-03T06:10:10.454Z,96626.81
2024-03-03T06:12:37.473Z,96627.69
2024-03-03T06:15:04.821Z,96629.84
2024-03-03T06:17:31.773Z,96626.53
2024-03-03T06:19:58.754Z,96630.88
2024-03-03T06:22:25.682Z,96627.63
2024-03-03T06:24:52.691Z,96635.00
2024-03-03T06:27:19.589Z,96626.16
2024-03-03T06:29:46.615Z,96627.97
2024-03-03T06:32:13.974Z,96627.19
2024-03-03T06:34:40.902Z,96625.38
2024-03-03T06:37:07.891Z,96620.75
2024-03-03T06:39:34.893Z,96626.97
2024-03-03T06:42:01.896Z,96629.56
2024-03-03T06:44:30.957Z,96626.53
2024-03-03T06:46:59.359Z,96627.34
2024-03-03T06:49:26.683Z,96627.34
2024-03-03T06:51:53.692Z,96628.09
2024-03-03T06:54:20.718Z,96624.94
2024-03-03T06:56:47.661Z,96626.97
2024-03-03T06:59:15.060Z,96630.16
2024-03-03T07:01:42.099Z,96629.56
2024-03-03T07:04:18.316Z,96621.75
2024-03-03T07:06:45.471Z,96626.53
2024-03-03T07:09:12.458Z,96624.72
2024-03-03T07:11:39.481Z,96622.91
2024-03-03T07:14:06.801Z,96626.69
2024-03-03T07:16:33.989Z,96619.88
2024-03-03T07:19:01.150Z,96627.03
2024-03-03T07:21:30.514Z,96624.78
2024-03-03T07:23:57.560Z,96631.00
2024-03-03T07:26:24.702Z,96625.34
2024-03-03T07:28:52.621Z,96623.91
2024-03-03T07:31:20.057Z,96631.72
2024-03-03T07:33:47.144Z,96622.88
2024-03-03T07:36:14.137Z,96621.88
2024-03-03T07:38:41.392Z,96613.63
2024-03-03T07:41:08.381Z,96617.03
2024-03-03T07:43:36.015Z,96616.59
2024-03-03T07:46:03.028Z,96612.94
2024-03-03T07:48:30.031Z,96618.16
2024-03-03T07:50:56.995Z,96618.28
2024-03-03T07:53:24.289Z,96618.09
2024-03-03T07:55:51.304Z,96610.84
2024-03-03T07:58:18.458Z,96608.59
2024-03-03T08:00:45.805Z,96613.56
2024-03-03T08:03:13.777Z,96606.88
2024-03-03T08:05:40.813Z,96601.66
2024-03-03T08:08:07.900Z,96606.06
2024-03-03T08:10:34.992Z,96605.06
2024-03-03T08:13:02.249Z,96605.19
2024-03-03T08:15:34.540Z,96606.44
2024-03-03T08:18:02.612Z,96605.00
2024-03-03T08:20:29.940Z,96595.72
2024-03-03T08:22:57.159Z,96612.59
2024-03-03T08:25:25.792Z,96604.00
2024-03-03T08:27:53.742Z,96597.38
2024-03-03T08:30:21.167Z,96601.38
2024-03-03T08:32:48.290Z,96607.03
2024-03-03T08:35:15.742Z,96601.72
2024-03-03T08:37:45.796Z,96597.38
2024-03-03T08:40:13.193Z,96594.78
2024-03-03T08:42:40.251Z,96583.13
2024-03-03T08:45:08.435Z,96582.72
2024-03-03T08:47:36.126Z,96587.75
2024-03-03T08:50:05.392Z,96582.78
2024-03-03T08:52:32.492Z,96582.63
2024-03-03T08:54:59.538Z,96583.56
2024-03-03T08:57:26.759Z,96582.19
2024-03-03T08:59:53.853Z,96575.22
2024-03-03T09:02:20.801Z,96578.38
2024-03-03T09:04:48.294Z,96579.59
2024-03-03T09:07:15.469Z,96577.28
2024-03-03T09:09:44.340Z,96581.25
2024-03-03T09:12:12.834Z,96579.66
2024-03-03T09:14:39.982Z,96576.75
2024-03-03T09:17:06.985Z,96578.28
2024-03-03T09:19:34.035Z,96578.06
2024-03-03T09:22:01.247Z,96575.38
2024-03-03T09:24:28.300Z,96571.41
2024-03-03T09:26:55.252Z,96575.66
2024-03-03T09:29:25.109Z,96567.06
2024-03-03T09:31:55.784Z,96564.72
2024-03-03T09:34:23.380Z,96561.72
2024-03-03T09:36:50.727Z,96565.50
2024-03-03T09:39:18.271Z,96563.38
2024-03-03T09:41:45.256Z,96564.44
2024-03-03T09:44:18.405Z,96554.38
2024-03-03T09:46:47.976Z,96561.19
2024-03-03T09:49:20.227Z,96561.88
2024-03-03T09:51:49.498Z,96559.38
2024-03-03T09:54:20.057Z,96559.69
2024-03-03T09:56:49.493Z,96556.28
2024-03-03T09:59:17.089Z,96554.84
2024-03-03T10:01:56.860Z,96554.28
2024-03-03T10:04:24.612Z,96556.84
2024-03-03T10:06:53.711Z,96547.53
2024-03-03T10:09:20.839Z,96550.63
2024-03-03T10:11:49.170Z,96553.28
2024-03-03T10:14:18.748Z,96551.69
2024-03-03T10:16:45.705Z,96557.38
2024-03-03T10:19:12.725Z,96554.75
2024-03-03T10:21:40.582Z,96561.13
2024-03-03T10:24:27.126Z,96557.00
2024-03-03T10:26:55.931Z,96556.78
2024-03-03T10:29:28.313Z,96567.53
2024-03-03T10:31:56.393Z,96550.81
2024-03-03T10:34:24.374Z,96555.06
2024-03-03T10:37:03.913Z,96555.25
2024-03-03T10:39:38.398Z,96544.72
2024-03-03T10:42:10.366Z,96556.03
2024-03-03T10:44:37.781Z,96545.47
2024-03-03T10:47:12.178Z,96542.19
2024-03-03T10:49:42.707Z,96539.66
2024-03-03T10:52:11.679Z,96539.09
2024-03-03T10:54:40.375Z,96537.34
2024-03-03T10:57:11.001Z,96543.69
2024-03-03T10:59:42.596Z,96535.19
2024-03-03T11:02:15.469Z,96534.09
2024-03-03T11:04:43.945Z,96532.56
2024-03-03T11:07:12.465Z,96531.34
2024-03-03T11:09:40.036Z,96529.22
2024-03-03T11:12:08.351Z,96525.78
2024-03-03T11:14:49.161Z,96528.63
2024-03-03T11:17:20.927Z,96525.84
2024-03-03T11:19:50.631Z,96528.41
2024-03-03T11:22:26.156Z,96519.19
2024-03-03T11:25:04.042Z,96519.53
2024-03-03T11:27:31.412Z,96530.84
2024-03-03T11:29:59.156Z,96524.72
2024-03-03T11:32:31.526Z,96521.00
2024-03-03T11:34:59.724Z,96522.00
2024-03-03T11:37:29.050Z,96516.22
2024-03-03T11:39:58.091Z,96505.34
2024-03-03T11:42:34.314Z,96504.63
2024-03-03T11:45:03.089Z,96501.81
2024-03-03T11:47:46.988Z,96502.16
2024-03-03T11:50:22.841Z,96505.81
2024-03-03T11:52:51.167Z,96493.25
2024-03-03T11:55:27.540Z,96502.47
2024-03-03T11:58:00.599Z,96498.84
2024-03-03T12:00:29.681Z,96488.00
2024-03-03T12:02:59.510Z,96487.06
2024-03-03T12:05:27.680Z,96486.94
2024-03-03T12:07:56.623Z,96485.19
2024-03-03T12:10:33.966Z,96477.38
2024-03-03T12:13:03.030Z,96470.88
2024-03-03T12:15:31.103Z,96467.28
2024-03-03T12:18:00.318Z,96464.19
2024-03-03T12:20:30.067Z,96464.69
2024-03-03T12:22:57.994Z,96468.72
2024-03-03T12:25:26.608Z,96470.56
2024-03-03T12:27:57.297Z,96468.63
2024-03-03T12:30:33.744Z,96462.75
2024-03-03T12:33:02.740Z,96459.13
2024-03-03T12:35:29.826Z,96461.41
2024-03-03T12:37:56.824Z,96464.53
2024-03-03T12:40:31.015Z,96454.47
2024-03-03T12:42:58.977Z,96456.25
2024-03-03T12:45:26.120Z,96450.97
2024-03-03T12:47:53.291Z,96445.22
2024-03-03T12:50:21.107Z,96449.91
2024-03-03T12:52:49.329Z,96436.88
2024-03-03T12:55:16.957Z,96439.06
2024-03-03T12:57:45.369Z,96441.44
2024-03-03T13:00:16.950Z,96443.66
2024-03-03T13:02:45.537Z,96440.91
2024-03-03T13:05:15.524Z,96444.81
2024-03-03T13:07:52.867Z,96435.13
2024-03-03T13:10:25.324Z,96437.81
2024-03-03T13:12:57.121Z,96432.53
2024-03-03T13:15:29.027Z,96423.13
2024-03-03T13:18:14.614Z,96427.75
2024-03-03T13:20:42.636Z,96431.47
2024-03-03T13:23:20.552Z,96429.97
2024-03-03T13:25:47.963Z,96422.88
2024-03-03T13:28:17.060Z,96426.00
2024-03-03T13:30:58.248Z,96430.22
2024-03-03T13:33:32.642Z,96429.47
2024-03-03T13:36:01.910Z,96424.69
2024-03-03T13:38:29.243Z,96420.88
2024-03-03T13:40:56.247Z,96427.97
2024-03-03T13:43:23.570Z,96417.06
2024-03-03T13:45:51.079Z,96421.69
2024-03-03T13:48:18.148Z,96436.09
2024-03-03T13:50:45.201Z,96432.13
2024-03-03T13:53:12.718Z,96435.50
2024-03-03T13:55:39.818Z,96425.50
2024-03-03T13:58:08.057Z,96423.38
2024-03-03T14:00:37.065Z,96426.72
2024-03-03T14:03:29.686Z,96427.41
2024-03-03T14:05:56.811Z,96427.53
2024-03-03T14:08:23.716Z,96426.22
2024-03-03T14:10:50.805Z,96422.94
2024-03-03T14:13:17.820Z,96423.38
2024-03-03T14:15:44.926Z,96418.31
2024-03-03T14:18:12.209Z,96423.53
2024-03-03T14:20:39.565Z,96429.72
2024-03-03T14:23:06.789Z,96433.41
2024-03-03T14:25:33.857Z,96434.06
2024-03-03T14:28:09.020Z,96435.13
2024-03-03T14:30:41.317Z,96440.81
2024-03-03T14:33:08.364Z,96435.91
2024-03-03T14:35:35.261Z,96443.31
2024-03-03T14:38:02.500Z,96441.94
2024-03-03T14:40:48.243Z,96435.59
2024-03-03T14:43:15.370Z,96441.84
2024-03-03T14:45:42.709Z,96434.69
2024-03-03T14:48:09.791Z,96440.53
2024-03-03T14:50:36.824Z,96443.22
2024-03-03T14:53:07.470Z,96445.81
2024-03-03T14:55:34.933Z,96444.66
2024-03-03T14:58:05.132Z,96451.94
2024-03-03T15:00:33.282Z,96439.03
2024-03-03T15:03:00.326Z,96440.16
2024-03-03T15:05:27.226Z,96443.56
2024-03-03T15:07:54.271Z,96444.66
2024-03-03T15:10:21.527Z,96444.94
2024-03-03T15:12:48.607Z,96453.31
2024-03-03T15:15:15.607Z,96444.22
2024-03-03T15:17:42.595Z,96444.94
2024-03-03T15:20:15.966Z,96451.44
2024-03-03T15:22:43.080Z,96447.78
2024-03-03T15:25:10.231Z,96444.69
2024-03-03T15:27:38.116Z,96452.50
2024-03-03T15:30:06.650Z,96447.00
2024-03-03T15:32:33.594Z,96443.88
2024-03-03T15:35:01.041Z,96446.91
2024-03-03T15:37:28.211Z,96446.53
2024-03-03T15:39:55.334Z,96441.81
2024-03-03T15:42:22.447Z,96448.09
2024-03-03T15:44:49.510Z,96447.16
2024-03-03T15:47:16.714Z,96450.59
2024-03-03T15:49:43.613Z,96450.69
2024-03-03T15:52:11.236Z,96453.00
2024-03-03T15:54:38.226Z,96460.66
2024-03-03T15:57:06.765Z,96463.03
2024-03-03T15:59:33.745Z,96463.34
2024-03-03T16:02:02.918Z,96462.84
2024-03-03T16:04:30.443Z,96464.41
2024-03-03T16:06:58.769Z,96468.91
2024-03-03T16:09:26.530Z,96464.75
2024-03-03T16:11:54.322Z,96469.25
2024-03-03T16:14:21.385Z,96472.88
2024-03-03T16:16:48.474Z,96475.09
2024-03-03T16:19:15.513Z,96479.50
2024-03-03T16:21:43.868Z,96487.13
2024-03-03T16:24:10.904Z,96487.69
2024-03-03T16:26:39.326Z,96489.13
2024-03-03T16:29:06.378Z,96492.47
2024-03-03T16:31:34.282Z,96494.25
2024-03-03T16:34:01.374Z,96496.34
2024-03-03T16:36:28.487Z,96498.00
2024-03-03T16:38:55.445Z,96500.16
2024-03-03T16:41:22.518Z,96503.94
2024-03-03T16:43:49.520Z,96506.56
2024-03-03T16:46:16.737Z,96503.81
2024-03-03T16:48:43.996Z,96506.34
2024-03-03T16:51:11.058Z,96508.47
2024-03-03T16:53:38.065Z,96511.31
2024-03-03T16:56:06.588Z,96515.75
2024-03-03T16:58:33.926Z,96520.91
2024-03-03T17:01:03.130Z,96520.38
2024-03-03T17:03:32.240Z,96525.28
2024-03-03T17:05:59.456Z,96529.81
2024-03-03T17:08:26.603Z,96529.09
2024-03-03T17:10:53.727Z,96534.84
2024-03-03T17:13:20.838Z,96536.38
2024-03-03T17:15:47.999Z,96547.00
2024-03-03T17:18:15.199Z,96546.97
2024-03-03T17:20:42.457Z,96555.19
2024-03-03T17:23:11.298Z,96555.69
2024-03-03T17:25:38.361Z,96561.22
2024-03-03T17:28:05.886Z,96554.19
2024-03-03T17:30:32.896Z,96565.25
2024-03-03T17:32:59.872Z,96566.84
2024-03-03T17:35:26.956Z,96576.09
2024-03-03T17:37:53.949Z,96571.88
2024-03-03T17:40:21.108Z,96572.16
2024-03-03T17:42:48.172Z,96581.63
2024-03-03T17:45:15.489Z,96587.66
2024-03-03T17:47:42.607Z,96589.03
2024-03-03T17:50:09.959Z,96594.28
2024-03-03T17:52:37.314Z,96589.28
2024-03-03T17:55:05.289Z,96602.97
2024-03-03T17:57:33.467Z,96598.50
2024-03-03T18:00:01.999Z,96600.88
2024-03-03T18:02:29.415Z,96604.53
2024-03-03T18:04:56.396Z,96604.75
2024-03-03T18:07:24.248Z,96607.47
2024-03-03T18:09:51.350Z,96611.09
2024-03-03T18:12:18.498Z,96605.56
2024-03-03T18:14:45.592Z,96612.66
2024-03-03T18:17:12.547Z,96608.72
2024-03-03T18:19:40.016Z,96614.50
2024-03-03T18:22:07.130Z,96620.97
2024-03-03T18:24:34.643Z,96621.19
2024-03-03T18:27:01.746Z,96625.97
2024-03-03T18:29:31.750Z,96629.69
2024-03-03T18:31:59.398Z,96627.03
2024-03-03T18:34:26.487Z,96624.94
2024-03-03T18:36:54.885Z,96644.13
2024-03-03T18:39:24.821Z,96630.13
2024-03-03T18:41:52.260Z,96638.97
2024-03-03T18:44:20.062Z,96638.75
2024-03-03T18:46:47.192Z,96647.09
2024-03-03T18:49:14.481Z,96646.84
2024-03-03T18:51:43.337Z,96648.19
2024-03-03T18:54:10.432Z,96653.44
2024-03-03T18:56:37.490Z,96657.91
2024-03-03T18:59:04.498Z,96647.66
2024-03-03T19:01:33.835Z,96656.28
2024-03-03T19:04:01.692Z,96661.00
2024-03-03T19:06:29.196Z,96665.47
2024-03-03T19:08:57.004Z,96667.00
2024-03-03T19:11:24.044Z,96670.34
2024-03-03T19:13:53.469Z,96677.94
2024-03-03T19:16:20.460Z,96675.00
2024-03-03T19:18:47.830Z,96677.69
2024-03-03T19:21:16.104Z,96676.78
2024-03-03T19:23:43.166Z,96678.94
2024-03-03T19:26:10.504Z,96676.03
2024-03-03T19:28:38.700Z,96679.22
2024-03-03T19:31:05.970Z,96674.47
2024-03-03T19:33:33.292Z,61630.53
2024-03-03T19:36:01.357Z,61630.53
2024-03-03T19:38:29.835Z,61630.53
2024-03-03T19:40:57.774Z,61630.53
2024-03-03T19:43:25.643Z,61630.53
2024-03-03T19:45:53.049Z,61630.53
2024-03-03T19:48:20.745Z,61630.53
2024-03-03T19:50:47.909Z,61630.53
2024-03-03T19:53:15.218Z,61630.53
2024-03-03T19:55:43.968Z,61630.53
2024-03-03T19:58:10.996Z,61630.53
2024-03-03T20:02:57.520Z,96702.38
2024-03-03T20:05:24.658Z,96704.97
2024-03-03T20:07:51.732Z,96707.78
2024-03-03T20:10:20.389Z,96707.53
2024-03-03T20:12:47.404Z,96711.44
2024-03-03T20:15:14.462Z,96717.41
2024-03-03T20:17:41.496Z,96715.06
2024-03-03T20:20:10.783Z,96717.91
2024-03-03T20:22:38.535Z,96718.44
2024-03-03T20:25:06.408Z,96719.44
2024-03-03T20:27:34.102Z,96718.59
2024-03-03T20:30:01.427Z,96718.81
2024-03-03T20:32:28.612Z,96725.94
2024-03-03T20:34:57.962Z,96727.91
2024-03-03T20:37:25.442Z,96731.56
2024-03-03T20:39:53.875Z,96717.69
2024-03-03T20:42:21.128Z,96732.16
2024-03-03T20:44:48.358Z,96728.81
2024-03-03T20:47:15.356Z,96732.72
2024-03-03T20:49:42.361Z,96740.59
2024-03-03T20:52:09.395Z,96747.88
2024-03-03T20:54:36.481Z,96753.13
2024-03-03T20:57:09.609Z,96755.84
2024-03-03T20:59:36.884Z,96755.25
2024-03-03T21:02:05.502Z,96764.66
2024-03-03T21:04:33.788Z,96755.47
2024-03-03T21:07:01.535Z,96763.56
2024-03-03T21:09:32.823Z,96760.38
2024-03-03T21:11:59.773Z,96772.88
2024-03-03T21:14:27.885Z,96775.97
2024-03-03T21:16:54.863Z,96777.81
2024-03-03T21:19:21.901Z,96781.72
2024-03-03T21:21:49.352Z,96792.75
2024-03-03T21:24:16.630Z,96789.06
2024-03-03T21:26:47.089Z,96797.25
2024-03-03T21:29:14.168Z,96802.97
2024-03-03T21:31:41.323Z,96805.06
2024-03-03T21:34:08.398Z,96801.63
2024-03-03T21:36:35.895Z,96807.94
2024-03-03T21:39:02.922Z,96812.84
2024-03-03T21:41:29.872Z,96812.03
2024-03-03T21:43:56.851Z,96820.94
2024-03-03T21:46:25.712Z,96821.44
2024-03-03T21:48:53.093Z,96823.47
2024-03-03T21:51:20.161Z,96827.94
2024-03-03T21:53:50.856Z,96831.03
2024-03-03T21:56:18.372Z,96831.84
2024-03-03T21:58:46.289Z,96840.94
2024-03-03T22:01:13.990Z,96841.66
2024-03-03T22:03:41.052Z,96849.22
2024-03-03T22:06:08.079Z,96854.91
2024-03-03T22:08:35.073Z,96860.97
2024-03-03T22:11:02.089Z,96862.19
2024-03-03T22:13:29.182Z,96856.97
2024-03-03T22:15:56.173Z,96858.47
2024-03-03T22:18:23.538Z,96868.97
2024-03-03T22:20:50.463Z,96873.09
2024-03-03T22:23:17.419Z,96880.16
2024-03-03T22:25:44.547Z,96873.31
2024-03-03T22:28:11.610Z,96887.91
2024-03-03T22:30:39.984Z,96885.34
2024-03-03T22:33:06.966Z,96890.09
2024-03-03T22:35:33.911Z,96896.94
2024-03-03T22:38:01.041Z,96893.75
2024-03-03T22:40:30.633Z,96902.06
2024-03-03T22:42:58.405Z,96902.78
2024-03-03T22:45:28.505Z,96901.19
2024-03-03T22:47:55.529Z,96902.13
2024-03-03T22:50:23.278Z,96904.75
2024-03-03T22:52:50.236Z,96913.06
2024-03-03T22:55:17.218Z,96914.88
2024-03-03T22:57:44.286Z,96918.75
2024-03-03T23:00:14.683Z,96911.94
2024-03-03T23:02:41.923Z,96925.50
2024-03-03T23:05:09.261Z,96920.47
2024-03-03T23:07:36.383Z,96930.38
2024-03-03T23:10:03.892Z,96933.47
2024-03-03T23:12:31.021Z,96931.88
2024-03-03T23:14:57.946Z,96937.34
2024-03-03T23:17:24.998Z,96942.00
2024-03-03T23:19:51.985Z,96941.56
2024-03-03T23:22:19.589Z,96948.97
2024-03-03T23:24:46.885Z,96950.78
2024-03-03T23:27:13.874Z,96953.63
2024-03-03T23:29:40.815Z,96953.84
2024-03-03T23:32:07.991Z,96964.81
2024-03-03T23:34:35.053Z,96966.38
2024-03-03T23:37:13.280Z,96970.69
2024-03-03T23:39:46.326Z,96973.22
2024-03-03T23:42:13.837Z,96973.09
2024-03-03T23:44:40.917Z,96982.75
2024-03-03T23:47:07.891Z,96983.81
2024-03-03T23:49:35.258Z,96993.22
2024-03-03T23:52:02.313Z,96997.91
2024-03-03T23:54:29.233Z,97001.75
2024-03-03T23:56:56.612Z,96994.97
2024-03-03T23:59:23.533Z,97008.25
